sensor_id;sensor_type;location;lat;lon;timestamp;P1;durP1;ratioP1;P2;durP2;ratioP2
27003;SDS011;14546;47.590;19.022;2023-04-01T00:00:51;5.25;;;2.25;;
27003;SDS011;14546;47.590;19.022;2023-04-01T00:03:18;4.68;;;2.22;;
27003;SDS011;14546;47.590;19.022;2023-04-01T00:05:45;5.65;;;2.53;;
27003;SDS011;14546;47.590;19.022;2023-04-01T00:08:11;3.67;;;2.17;;
27003;SDS011;14546;47.590;19.022;2023-04-01T00:10:37;5.35;;;2.55;;
27003;SDS011;14546;47.590;19.022;2023-04-01T00:13:03;4.55;;;2.50;;
27003;SDS011;14546;47.590;19.022;2023-04-01T00:15:29;6.53;;;2.40;;
27003;SDS011;14546;47.590;19.022;2023-04-01T00:17:55;4.72;;;2.30;;
27003;SDS011;14546;47.590;19.022;2023-04-01T00:20:21;4.93;;;2.20;;
27003;SDS011;14546;47.590;19.022;2023-04-01T00:22:46;4.32;;;1.90;;
27003;SDS011;14546;47.590;19.022;2023-04-01T00:25:12;3.88;;;1.98;;
27003;SDS011;14546;47.590;19.022;2023-04-01T00:27:38;5.15;;;2.10;;
27003;SDS011;14546;47.590;19.022;2023-04-01T00:30:04;2.75;;;1.77;;
27003;SDS011;14546;47.590;19.022;2023-04-01T00:32:31;2.55;;;1.63;;
27003;SDS011;14546;47.590;19.022;2023-04-01T00:34:56;3.50;;;1.60;;
27003;SDS011;14546;47.590;19.022;2023-04-01T00:37:24;3.35;;;1.80;;
27003;SDS011;14546;47.590;19.022;2023-04-01T00:39:50;2.95;;;1.60;;
27003;SDS011;14546;47.590;19.022;2023-04-01T00:42:16;3.90;;;1.83;;
27003;SDS011;14546;47.590;19.022;2023-04-01T00:44:44;3.55;;;1.83;;
27003;SDS011;14546;47.590;19.022;2023-04-01T00:47:13;9.52;;;2.00;;
27003;SDS011;14546;47.590;19.022;2023-04-01T00:49:40;2.10;;;1.65;;
27003;SDS011;14546;47.590;19.022;2023-04-01T00:52:09;4.22;;;1.90;;
27003;SDS011;14546;47.590;19.022;2023-04-01T00:54:37;3.92;;;1.85;;
27003;SDS011;14546;47.590;19.022;2023-04-01T00:57:15;3.90;;;1.73;;
27003;SDS011;14546;47.590;19.022;2023-04-01T00:59:57;3.40;;;1.63;;
27003;SDS011;14546;47.590;19.022;2023-04-01T01:02:24;3.28;;;1.92;;
27003;SDS011;14546;47.590;19.022;2023-04-01T01:04:49;3.38;;;1.70;;
27003;SDS011;14546;47.590;19.022;2023-04-01T01:10:24;9.18;;;3.70;;
27003;SDS011;14546;47.590;19.022;2023-04-01T01:13:13;8.27;;;3.72;;
27003;SDS011;14546;47.590;19.022;2023-04-01T01:15:57;9.85;;;4.60;;
27003;SDS011;14546;47.590;19.022;2023-04-01T01:37:45;4.25;;;1.50;;
27003;SDS011;14546;47.590;19.022;2023-04-01T01:40:13;4.63;;;1.70;;
27003;SDS011;14546;47.590;19.022;2023-04-01T01:42:42;3.20;;;1.60;;
27003;SDS011;14546;47.590;19.022;2023-04-01T01:45:11;1.50;;;1.05;;
27003;SDS011;14546;47.590;19.022;2023-04-01T01:47:42;2.08;;;1.35;;
27003;SDS011;14546;47.590;19.022;2023-04-01T01:50:10;4.20;;;1.30;;
27003;SDS011;14546;47.590;19.022;2023-04-01T01:52:36;2.25;;;0.98;;
27003;SDS011;14546;47.590;19.022;2023-04-01T01:55:02;1.65;;;1.20;;
27003;SDS011;14546;47.590;19.022;2023-04-01T01:57:29;4.43;;;1.58;;
27003;SDS011;14546;47.590;19.022;2023-04-01T02:00:03;2.08;;;1.33;;
27003;SDS011;14546;47.590;19.022;2023-04-01T02:02:39;3.80;;;1.10;;
27003;SDS011;14546;47.590;19.022;2023-04-01T02:05:07;2.03;;;1.10;;
27003;SDS011;14546;47.590;19.022;2023-04-01T02:07:35;2.25;;;1.27;;
27003;SDS011;14546;47.590;19.022;2023-04-01T02:10:04;3.95;;;1.00;;
27003;SDS011;14546;47.590;19.022;2023-04-01T02:12:31;4.97;;;1.50;;
27003;SDS011;14546;47.590;19.022;2023-04-01T02:17:33;7.93;;;1.85;;
27003;SDS011;14546;47.590;19.022;2023-04-01T02:20:08;2.92;;;1.10;;
27003;SDS011;14546;47.590;19.022;2023-04-01T02:25:23;3.78;;;1.33;;
27003;SDS011;14546;47.590;19.022;2023-04-01T02:27:51;3.03;;;1.33;;
27003;SDS011;14546;47.590;19.022;2023-04-01T02:30:18;1.42;;;1.05;;
27003;SDS011;14546;47.590;19.022;2023-04-01T02:32:45;4.60;;;1.42;;
27003;SDS011;14546;47.590;19.022;2023-04-01T02:35:13;1.67;;;1.23;;
27003;SDS011;14546;47.590;19.022;2023-04-01T02:37:40;3.30;;;1.20;;
27003;SDS011;14546;47.590;19.022;2023-04-01T02:40:07;12.10;;;1.90;;
27003;SDS011;14546;47.590;19.022;2023-04-01T02:42:36;3.17;;;1.20;;
27003;SDS011;14546;47.590;19.022;2023-04-01T02:45:02;1.77;;;1.40;;
27003;SDS011;14546;47.590;19.022;2023-04-01T02:47:29;2.17;;;1.15;;
27003;SDS011;14546;47.590;19.022;2023-04-01T02:49:54;4.65;;;1.23;;
27003;SDS011;14546;47.590;19.022;2023-04-01T02:52:27;2.53;;;1.10;;
27003;SDS011;14546;47.590;19.022;2023-04-01T02:54:53;3.50;;;1.15;;
27003;SDS011;14546;47.590;19.022;2023-04-01T02:57:20;3.38;;;1.10;;
27003;SDS011;14546;47.590;19.022;2023-04-01T02:59:46;1.80;;;1.00;;
27003;SDS011;14546;47.590;19.022;2023-04-01T03:02:12;2.00;;;0.90;;
27003;SDS011;14546;47.590;19.022;2023-04-01T03:04:38;4.05;;;1.17;;
27003;SDS011;14546;47.590;19.022;2023-04-01T03:07:04;2.58;;;1.45;;
27003;SDS011;14546;47.590;19.022;2023-04-01T03:09:30;3.45;;;1.08;;
27003;SDS011;14546;47.590;19.022;2023-04-01T03:11:56;3.38;;;0.98;;
27003;SDS011;14546;47.590;19.022;2023-04-01T03:14:22;4.05;;;1.00;;
27003;SDS011;14546;47.590;19.022;2023-04-01T03:16:47;2.88;;;1.30;;
27003;SDS011;14546;47.590;19.022;2023-04-01T03:19:13;2.85;;;1.35;;
27003;SDS011;14546;47.590;19.022;2023-04-01T03:21:39;2.38;;;1.20;;
27003;SDS011;14546;47.590;19.022;2023-04-01T03:24:05;3.25;;;1.10;;
27003;SDS011;14546;47.590;19.022;2023-04-01T03:26:34;3.20;;;1.33;;
27003;SDS011;14546;47.590;19.022;2023-04-01T03:28:59;1.67;;;1.17;;
27003;SDS011;14546;47.590;19.022;2023-04-01T03:31:25;2.35;;;1.40;;
27003;SDS011;14546;47.590;19.022;2023-04-01T03:33:51;1.85;;;1.42;;
27003;SDS011;14546;47.590;19.022;2023-04-01T03:36:17;3.50;;;1.27;;
27003;SDS011;14546;47.590;19.022;2023-04-01T03:38:43;2.45;;;1.55;;
27003;SDS011;14546;47.590;19.022;2023-04-01T03:41:13;1.77;;;1.10;;
27003;SDS011;14546;47.590;19.022;2023-04-01T03:43:40;3.30;;;1.58;;
27003;SDS011;14546;47.590;19.022;2023-04-01T03:46:06;4.60;;;1.50;;
27003;SDS011;14546;47.590;19.022;2023-04-01T03:48:32;2.88;;;1.27;;
27003;SDS011;14546;47.590;19.022;2023-04-01T03:50:57;4.70;;;1.42;;
27003;SDS011;14546;47.590;19.022;2023-04-01T03:53:23;3.28;;;1.50;;
27003;SDS011;14546;47.590;19.022;2023-04-01T03:55:49;3.47;;;1.30;;
27003;SDS011;14546;47.590;19.022;2023-04-01T03:58:16;2.65;;;1.55;;
27003;SDS011;14546;47.590;19.022;2023-04-01T04:00:42;3.78;;;1.30;;
27003;SDS011;14546;47.590;19.022;2023-04-01T04:03:08;1.80;;;1.10;;
27003;SDS011;14546;47.590;19.022;2023-04-01T04:05:34;2.90;;;1.33;;
27003;SDS011;14546;47.590;19.022;2023-04-01T04:08:00;2.20;;;1.20;;
27003;SDS011;14546;47.590;19.022;2023-04-01T04:10:26;2.28;;;1.48;;
27003;SDS011;14546;47.590;19.022;2023-04-01T04:12:51;2.00;;;1.50;;
27003;SDS011;14546;47.590;19.022;2023-04-01T04:15:17;4.28;;;1.52;;
27003;SDS011;14546;47.590;19.022;2023-04-01T04:17:46;4.75;;;1.80;;
27003;SDS011;14546;47.590;19.022;2023-04-01T04:20:12;4.55;;;1.38;;
27003;SDS011;14546;47.590;19.022;2023-04-01T04:22:38;4.28;;;1.70;;
27003;SDS011;14546;47.590;19.022;2023-04-01T04:25:04;4.72;;;1.63;;
27003;SDS011;14546;47.590;19.022;2023-04-01T04:27:30;2.45;;;1.70;;
27003;SDS011;14546;47.590;19.022;2023-04-01T04:29:56;5.53;;;1.92;;
27003;SDS011;14546;47.590;19.022;2023-04-01T04:32:22;5.35;;;2.20;;
27003;SDS011;14546;47.590;19.022;2023-04-01T04:34:47;3.80;;;2.38;;
27003;SDS011;14546;47.590;19.022;2023-04-01T04:37:13;5.53;;;2.30;;
27003;SDS011;14546;47.590;19.022;2023-04-01T04:39:38;4.15;;;2.40;;
27003;SDS011;14546;47.590;19.022;2023-04-01T04:42:05;5.78;;;2.75;;
27003;SDS011;14546;47.590;19.022;2023-04-01T04:44:30;6.13;;;3.03;;
27003;SDS011;14546;47.590;19.022;2023-04-01T04:46:56;7.43;;;3.10;;
27003;SDS011;14546;47.590;19.022;2023-04-01T04:49:22;7.47;;;3.00;;
27003;SDS011;14546;47.590;19.022;2023-04-01T04:51:47;5.65;;;2.67;;
27003;SDS011;14546;47.590;19.022;2023-04-01T04:54:13;3.88;;;1.98;;
27003;SDS011;14546;47.590;19.022;2023-04-01T04:56:39;4.40;;;1.88;;
27003;SDS011;14546;47.590;19.022;2023-04-01T04:59:07;4.93;;;2.55;;
27003;SDS011;14546;47.590;19.022;2023-04-01T05:01:33;7.88;;;2.80;;
27003;SDS011;14546;47.590;19.022;2023-04-01T05:03:59;3.60;;;2.28;;
27003;SDS011;14546;47.590;19.022;2023-04-01T05:06:26;5.18;;;2.53;;
27003;SDS011;14546;47.590;19.022;2023-04-01T05:08:54;7.78;;;2.78;;
27003;SDS011;14546;47.590;19.022;2023-04-01T05:11:20;3.42;;;2.20;;
27003;SDS011;14546;47.590;19.022;2023-04-01T05:13:46;5.53;;;2.25;;
27003;SDS011;14546;47.590;19.022;2023-04-01T05:16:14;4.22;;;2.45;;
27003;SDS011;14546;47.590;19.022;2023-04-01T05:18:42;5.05;;;1.98;;
27003;SDS011;14546;47.590;19.022;2023-04-01T05:21:09;9.57;;;2.03;;
27003;SDS011;14546;47.590;19.022;2023-04-01T05:23:36;4.65;;;1.92;;
27003;SDS011;14546;47.590;19.022;2023-04-01T05:26:03;6.03;;;1.60;;
27003;SDS011;14546;47.590;19.022;2023-04-01T05:28:30;3.35;;;1.80;;
27003;SDS011;14546;47.590;19.022;2023-04-01T05:30:57;5.38;;;1.75;;
27003;SDS011;14546;47.590;19.022;2023-04-01T05:33:25;2.22;;;1.35;;
27003;SDS011;14546;47.590;19.022;2023-04-01T05:35:50;4.57;;;1.58;;
27003;SDS011;14546;47.590;19.022;2023-04-01T05:38:16;3.05;;;1.65;;
27003;SDS011;14546;47.590;19.022;2023-04-01T05:40:42;3.17;;;1.33;;
27003;SDS011;14546;47.590;19.022;2023-04-01T05:43:07;3.10;;;1.45;;
27003;SDS011;14546;47.590;19.022;2023-04-01T05:45:33;3.55;;;1.40;;
27003;SDS011;14546;47.590;19.022;2023-04-01T05:47:59;2.70;;;1.42;;
27003;SDS011;14546;47.590;19.022;2023-04-01T05:50:25;6.25;;;1.40;;
27003;SDS011;14546;47.590;19.022;2023-04-01T05:52:51;3.63;;;1.40;;
27003;SDS011;14546;47.590;19.022;2023-04-01T05:55:17;4.22;;;2.10;;
27003;SDS011;14546;47.590;19.022;2023-04-01T05:57:44;2.70;;;1.33;;
27003;SDS011;14546;47.590;19.022;2023-04-01T06:00:11;3.10;;;1.63;;
27003;SDS011;14546;47.590;19.022;2023-04-01T06:02:37;3.38;;;1.60;;
27003;SDS011;14546;47.590;19.022;2023-04-01T06:05:14;4.13;;;1.88;;
27003;SDS011;14546;47.590;19.022;2023-04-01T06:07:45;5.00;;;2.45;;
27003;SDS011;14546;47.590;19.022;2023-04-01T06:10:15;8.07;;;2.85;;
27003;SDS011;14546;47.590;19.022;2023-04-01T06:12:45;6.63;;;1.65;;
27003;SDS011;14546;47.590;19.022;2023-04-01T06:42:15;3.72;;;1.25;;
27003;SDS011;14546;47.590;19.022;2023-04-01T06:55:41;4.05;;;1.42;;
27003;SDS011;14546;47.590;19.022;2023-04-01T06:58:26;6.18;;;1.38;;
27003;SDS011;14546;47.590;19.022;2023-04-01T07:01:02;2.40;;;1.40;;
27003;SDS011;14546;47.590;19.022;2023-04-01T07:03:44;4.30;;;1.60;;
27003;SDS011;14546;47.590;19.022;2023-04-01T07:06:25;4.72;;;1.70;;
27003;SDS011;14546;47.590;19.022;2023-04-01T07:08:57;4.20;;;1.38;;
27003;SDS011;14546;47.590;19.022;2023-04-01T07:11:28;4.65;;;1.38;;
27003;SDS011;14546;47.590;19.022;2023-04-01T07:14:04;5.07;;;1.63;;
27003;SDS011;14546;47.590;19.022;2023-04-01T07:16:51;1.90;;;1.08;;
27003;SDS011;14546;47.590;19.022;2023-04-01T07:19:42;4.25;;;1.50;;
27003;SDS011;14546;47.590;19.022;2023-04-01T07:22:33;5.85;;;1.48;;
27003;SDS011;14546;47.590;19.022;2023-04-01T07:25:11;4.38;;;1.33;;
27003;SDS011;14546;47.590;19.022;2023-04-01T07:27:41;4.50;;;1.50;;
27003;SDS011;14546;47.590;19.022;2023-04-01T07:30:13;3.38;;;1.83;;
27003;SDS011;14546;47.590;19.022;2023-04-01T07:32:46;6.00;;;1.48;;
27003;SDS011;14546;47.590;19.022;2023-04-01T07:35:27;1.58;;;1.10;;
27003;SDS011;14546;47.590;19.022;2023-04-01T07:40:48;3.75;;;1.35;;
27003;SDS011;14546;47.590;19.022;2023-04-01T08:08:11;2.53;;;0.98;;
27003;SDS011;14546;47.590;19.022;2023-04-01T08:21:31;2.70;;;1.70;;
27003;SDS011;14546;47.590;19.022;2023-04-01T08:24:29;4.88;;;1.17;;
27003;SDS011;14546;47.590;19.022;2023-04-01T08:26:58;3.75;;;1.45;;
27003;SDS011;14546;47.590;19.022;2023-04-01T08:32:36;2.92;;;1.33;;
27003;SDS011;14546;47.590;19.022;2023-04-01T08:35:09;3.45;;;1.30;;
27003;SDS011;14546;47.590;19.022;2023-04-01T08:37:43;2.92;;;1.40;;
27003;SDS011;14546;47.590;19.022;2023-04-01T08:40:17;3.85;;;1.27;;
27003;SDS011;14546;47.590;19.022;2023-04-01T09:16:08;3.40;;;1.23;;
27003;SDS011;14546;47.590;19.022;2023-04-01T09:37:48;6.07;;;2.42;;
27003;SDS011;14546;47.590;19.022;2023-04-01T09:43:27;6.18;;;1.88;;
27003;SDS011;14546;47.590;19.022;2023-04-01T09:46:23;5.10;;;2.22;;
27003;SDS011;14546;47.590;19.022;2023-04-01T10:26:28;5.53;;;2.10;;
27003;SDS011;14546;47.590;19.022;2023-04-01T10:47:39;7.72;;;2.17;;
27003;SDS011;14546;47.590;19.022;2023-04-01T11:00:31;5.65;;;1.65;;
27003;SDS011;14546;47.590;19.022;2023-04-01T11:11:30;2.90;;;1.42;;
27003;SDS011;14546;47.590;19.022;2023-04-01T11:19:14;4.13;;;1.35;;
27003;SDS011;14546;47.590;19.022;2023-04-01T11:32:50;9.70;;;2.22;;
27003;SDS011;14546;47.590;19.022;2023-04-01T11:35:49;8.05;;;1.77;;
27003;SDS011;14546;47.590;19.022;2023-04-01T11:38:45;6.85;;;2.28;;
27003;SDS011;14546;47.590;19.022;2023-04-01T11:49:49;11.05;;;3.20;;
27003;SDS011;14546;47.590;19.022;2023-04-01T12:25:53;5.32;;;1.73;;
27003;SDS011;14546;47.590;19.022;2023-04-01T12:42:17;5.68;;;1.90;;
27003;SDS011;14546;47.590;19.022;2023-04-01T13:00:12;3.78;;;1.45;;
27003;SDS011;14546;47.590;19.022;2023-04-01T13:30:39;3.03;;;1.42;;
27003;SDS011;14546;47.590;19.022;2023-04-01T13:33:30;4.57;;;2.20;;
27003;SDS011;14546;47.590;19.022;2023-04-01T13:41:01;2.63;;;1.10;;
27003;SDS011;14546;47.590;19.022;2023-04-01T13:46:08;1.92;;;0.98;;
27003;SDS011;14546;47.590;19.022;2023-04-01T13:51:18;2.85;;;1.30;;
27003;SDS011;14546;47.590;19.022;2023-04-01T14:04:16;4.47;;;1.20;;
27003;SDS011;14546;47.590;19.022;2023-04-01T14:19:50;2.72;;;1.27;;
27003;SDS011;14546;47.590;19.022;2023-04-01T14:22:28;2.35;;;1.08;;
27003;SDS011;14546;47.590;19.022;2023-04-01T14:30:38;2.78;;;1.55;;
27003;SDS011;14546;47.590;19.022;2023-04-01T14:33:23;4.88;;;1.52;;
27003;SDS011;14546;47.590;19.022;2023-04-01T14:38:24;5.18;;;1.30;;
27003;SDS011;14546;47.590;19.022;2023-04-01T14:41:35;3.37;;;1.50;;
27003;SDS011;14546;47.590;19.022;2023-04-01T14:51:16;4.82;;;1.85;;
27003;SDS011;14546;47.590;19.022;2023-04-01T14:56:48;1.90;;;1.25;;
27003;SDS011;14546;47.590;19.022;2023-04-01T15:01:55;1.92;;;1.08;;
27003;SDS011;14546;47.590;19.022;2023-04-01T15:10:29;2.85;;;1.20;;
27003;SDS011;14546;47.590;19.022;2023-04-01T15:13:14;3.58;;;1.92;;
27003;SDS011;14546;47.590;19.022;2023-04-01T15:23:56;3.38;;;1.17;;
27003;SDS011;14546;47.590;19.022;2023-04-01T15:37:01;1.95;;;0.95;;
27003;SDS011;14546;47.590;19.022;2023-04-01T15:39:38;2.92;;;0.93;;
27003;SDS011;14546;47.590;19.022;2023-04-01T15:45:30;1.38;;;0.80;;
27003;SDS011;14546;47.590;19.022;2023-04-01T15:51:01;1.55;;;0.60;;
27003;SDS011;14546;47.590;19.022;2023-04-01T15:53:50;1.85;;;0.70;;
27003;SDS011;14546;47.590;19.022;2023-04-01T16:16:58;1.92;;;0.88;;
27003;SDS011;14546;47.590;19.022;2023-04-01T16:23:13;1.13;;;0.75;;
27003;SDS011;14546;47.590;19.022;2023-04-01T16:25:44;1.10;;;0.68;;
27003;SDS011;14546;47.590;19.022;2023-04-01T16:28:23;1.88;;;1.05;;
27003;SDS011;14546;47.590;19.022;2023-04-01T16:31:06;1.70;;;1.10;;
27003;SDS011;14546;47.590;19.022;2023-04-01T16:39:28;5.30;;;1.15;;
27003;SDS011;14546;47.590;19.022;2023-04-01T16:42:11;4.40;;;1.25;;
27003;SDS011;14546;47.590;19.022;2023-04-01T16:47:35;2.13;;;0.85;;
27003;SDS011;14546;47.590;19.022;2023-04-01T16:50:15;3.65;;;1.00;;
27003;SDS011;14546;47.590;19.022;2023-04-01T16:55:18;1.90;;;1.15;;
27003;SDS011;14546;47.590;19.022;2023-04-01T16:57:48;4.32;;;1.85;;
27003;SDS011;14546;47.590;19.022;2023-04-01T17:02:58;3.22;;;1.90;;
27003;SDS011;14546;47.590;19.022;2023-04-01T17:10:53;6.38;;;1.77;;
27003;SDS011;14546;47.590;19.022;2023-04-01T17:16:28;5.82;;;2.28;;
27003;SDS011;14546;47.590;19.022;2023-04-01T17:19:14;2.97;;;1.50;;
27003;SDS011;14546;47.590;19.022;2023-04-01T17:22:05;2.30;;;1.42;;
27003;SDS011;14546;47.590;19.022;2023-04-01T17:35:22;3.55;;;1.50;;
27003;SDS011;14546;47.590;19.022;2023-04-01T17:51:12;5.38;;;2.25;;
27003;SDS011;14546;47.590;19.022;2023-04-01T17:56:53;3.03;;;1.70;;
27003;SDS011;14546;47.590;19.022;2023-04-01T18:02:06;6.32;;;2.95;;
27003;SDS011;14546;47.590;19.022;2023-04-01T18:10:48;17.27;;;9.68;;
27003;SDS011;14546;47.590;19.022;2023-04-01T18:21:47;21.27;;;10.15;;
27003;SDS011;14546;47.590;19.022;2023-04-01T18:24:35;11.48;;;5.45;;
27003;SDS011;14546;47.590;19.022;2023-04-01T18:27:30;11.43;;;5.30;;
27003;SDS011;14546;47.590;19.022;2023-04-01T18:30:07;9.82;;;5.05;;
27003;SDS011;14546;47.590;19.022;2023-04-01T18:38:18;10.75;;;5.38;;
27003;SDS011;14546;47.590;19.022;2023-04-01T18:51:57;8.75;;;4.07;;
27003;SDS011;14546;47.590;19.022;2023-04-01T18:54:40;6.95;;;3.53;;
27003;SDS011;14546;47.590;19.022;2023-04-01T18:57:16;5.22;;;3.05;;
27003;SDS011;14546;47.590;19.022;2023-04-01T19:04:56;6.60;;;3.30;;
27003;SDS011;14546;47.590;19.022;2023-04-01T19:10:37;5.55;;;2.63;;
27003;SDS011;14546;47.590;19.022;2023-04-01T19:22:20;12.70;;;5.40;;
27003;SDS011;14546;47.590;19.022;2023-04-01T19:27:14;9.25;;;5.45;;
27003;SDS011;14546;47.590;19.022;2023-04-01T19:30:04;11.70;;;5.33;;
27003;SDS011;14546;47.590;19.022;2023-04-01T19:46:29;15.43;;;6.05;;
27003;SDS011;14546;47.590;19.022;2023-04-01T20:06:02;13.60;;;7.03;;
27003;SDS011;14546;47.590;19.022;2023-04-01T20:33:52;15.73;;;8.27;;
27003;SDS011;14546;47.590;19.022;2023-04-01T20:36:31;21.90;;;8.82;;
27003;SDS011;14546;47.590;19.022;2023-04-01T20:53:12;13.57;;;6.22;;
27003;SDS011;14546;47.590;19.022;2023-04-01T21:01:33;9.93;;;5.25;;
27003;SDS011;14546;47.590;19.022;2023-04-01T21:07:36;9.93;;;5.30;;
27003;SDS011;14546;47.590;19.022;2023-04-01T21:48:53;4.15;;;2.40;;
27003;SDS011;14546;47.590;19.022;2023-04-01T21:58:09;7.20;;;3.00;;
27003;SDS011;14546;47.590;19.022;2023-04-01T22:03:20;25.05;;;3.00;;
27003;SDS011;14546;47.590;19.022;2023-04-01T22:17:31;11.95;;;4.28;;
27003;SDS011;14546;47.590;19.022;2023-04-01T22:23:24;8.32;;;4.28;;
27003;SDS011;14546;47.590;19.022;2023-04-01T22:26:27;8.60;;;4.63;;
27003;SDS011;14546;47.590;19.022;2023-04-01T22:28:58;8.63;;;4.28;;
27003;SDS011;14546;47.590;19.022;2023-04-01T22:31:40;8.88;;;5.18;;
27003;SDS011;14546;47.590;19.022;2023-04-01T22:37:26;7.80;;;4.15;;
27003;SDS011;14546;47.590;19.022;2023-04-01T22:43:54;6.25;;;3.40;;
27003;SDS011;14546;47.590;19.022;2023-04-01T22:46:07;9.27;;;3.60;;
27003;SDS011;14546;47.590;19.022;2023-04-01T22:48:45;7.97;;;3.80;;
27003;SDS011;14546;47.590;19.022;2023-04-01T22:51:31;7.28;;;3.65;;
27003;SDS011;14546;47.590;19.022;2023-04-01T22:54:14;5.68;;;3.38;;
27003;SDS011;14546;47.590;19.022;2023-04-01T23:00:02;6.03;;;3.10;;
27003;SDS011;14546;47.590;19.022;2023-04-01T23:02:34;4.80;;;3.03;;
27003;SDS011;14546;47.590;19.022;2023-04-01T23:05:04;4.05;;;2.90;;
27003;SDS011;14546;47.590;19.022;2023-04-01T23:07:45;4.72;;;2.70;;
27003;SDS011;14546;47.590;19.022;2023-04-01T23:10:39;4.78;;;3.10;;
27003;SDS011;14546;47.590;19.022;2023-04-01T23:13:01;8.35;;;3.03;;
27003;SDS011;14546;47.590;19.022;2023-04-01T23:15:27;4.40;;;2.80;;
27003;SDS011;14546;47.590;19.022;2023-04-01T23:18:18;7.13;;;2.88;;
27003;SDS011;14546;47.590;19.022;2023-04-01T23:23:35;2.83;;;2.10;;
27003;SDS011;14546;47.590;19.022;2023-04-01T23:26:12;3.75;;;2.28;;
27003;SDS011;14546;47.590;19.022;2023-04-01T23:28:47;3.72;;;2.20;;
27003;SDS011;14546;47.590;19.022;2023-04-01T23:33:56;2.55;;;1.63;;
27003;SDS011;14546;47.590;19.022;2023-04-01T23:36:26;4.75;;;1.90;;
27003;SDS011;14546;47.590;19.022;2023-04-01T23:38:53;5.53;;;1.80;;
27003;SDS011;14546;47.590;19.022;2023-04-01T23:41:29;2.85;;;1.90;;
27003;SDS011;14546;47.590;19.022;2023-04-01T23:44:07;2.70;;;1.77;;
27003;SDS011;14546;47.590;19.022;2023-04-01T23:46:35;3.15;;;1.70;;
27003;SDS011;14546;47.590;19.022;2023-04-01T23:49:04;9.85;;;1.83;;
27003;SDS011;14546;47.590;19.022;2023-04-01T23:52:21;3.08;;;1.90;;
27003;SDS011;14546;47.590;19.022;2023-04-01T23:54:43;3.13;;;1.90;;
27003;SDS011;14546;47.590;19.022;2023-04-01T23:57:15;2.00;;;1.30;;
